createdAt,value
2019-01-25T00:01:59.976Z,36.77
2019-01-25T00:04:28.779Z,40.38
2019-01-25T00:06:57.595Z,38.80
2019-01-25T00:09:26.462Z,42.40
2019-01-25T00:11:55.313Z,39.57
2019-01-25T00:14:24.094Z,30.83
2019-01-25T00:16:52.893Z,33.00
2019-01-25T00:19:21.670Z,39.33
2019-01-25T00:21:50.455Z,31.00
2019-01-25T00:24:19.239Z,34.27
2019-01-25T00:26:48.107Z,45.10
2019-01-25T00:29:17.702Z,28.83
2019-01-25T00:31:46.647Z,42.38
2019-01-25T00:34:15.432Z,33.00
2019-01-25T00:36:44.290Z,36.37
2019-01-25T00:39:13.134Z,38.57
2019-01-25T00:41:41.930Z,35.77
2019-01-25T00:44:10.880Z,33.40
2019-01-25T00:46:39.744Z,29.87
2019-01-25T00:49:08.643Z,31.10
2019-01-25T00:51:37.500Z,36.50
2019-01-25T00:54:06.576Z,40.07
2019-01-25T00:56:35.469Z,36.47
2019-01-25T00:59:04.739Z,31.40
2019-01-25T01:01:33.780Z,32.10
2019-01-25T01:04:02.564Z,35.63
2019-01-25T01:06:31.444Z,36.50
2019-01-25T01:09:00.335Z,48.90
2019-01-25T01:11:29.127Z,43.20
2019-01-25T01:13:57.989Z,33.00
2019-01-25T01:16:26.866Z,39.67
2019-01-25T01:18:55.664Z,42.78
2019-01-25T01:21:24.536Z,40.17
2019-01-25T01:23:53.315Z,29.80
2019-01-25T01:26:22.268Z,34.07
2019-01-25T01:28:51.057Z,45.25
2019-01-25T01:31:20.233Z,42.43
2019-01-25T01:33:49.103Z,40.17
2019-01-25T01:36:17.891Z,34.97
2019-01-25T01:38:46.749Z,46.30
2019-01-25T01:41:15.621Z,37.63
2019-01-25T01:43:44.483Z,44.53
2019-01-25T01:46:13.399Z,37.20
2019-01-25T01:48:42.177Z,36.27
2019-01-25T01:51:11.107Z,43.87
2019-01-25T01:53:39.971Z,42.80
2019-01-25T01:56:08.915Z,40.87
2019-01-25T01:58:37.810Z,42.67
2019-01-25T02:01:06.851Z,38.23
2019-01-25T02:03:35.778Z,40.77
2019-01-25T02:06:04.993Z,45.43
2019-01-25T02:08:33.808Z,42.93
2019-01-25T02:11:02.599Z,44.53
2019-01-25T02:13:31.554Z,48.10
2019-01-25T02:16:00.490Z,41.40
2019-01-25T02:18:29.290Z,36.10
2019-01-25T02:20:58.533Z,40.67
2019-01-25T02:23:27.393Z,42.87
2019-01-25T02:25:56.256Z,41.90
2019-01-25T02:28:25.190Z,42.90
2019-01-25T02:30:54.053Z,45.13
2019-01-25T02:33:22.927Z,47.50
2019-01-25T02:35:52.544Z,42.90
2019-01-25T02:38:21.388Z,46.98
2019-01-25T02:40:50.182Z,50.97
2019-01-25T02:43:19.072Z,48.63
2019-01-25T02:45:48.000Z,48.50
2019-01-25T02:48:16.875Z,36.80
2019-01-25T02:50:45.726Z,37.93
2019-01-25T02:53:14.529Z,47.20
2019-01-25T02:55:43.306Z,52.00
2019-01-25T02:58:12.462Z,43.60
2019-01-25T03:00:41.256Z,58.07
2019-01-25T03:03:10.126Z,37.63
2019-01-25T03:05:38.998Z,37.50
2019-01-25T03:08:07.869Z,52.30
2019-01-25T03:10:36.808Z,57.40
2019-01-25T03:13:05.810Z,44.25
2019-01-25T03:15:34.685Z,65.70
2019-01-25T03:18:03.543Z,48.03
2019-01-25T03:20:32.321Z,51.93
2019-01-25T03:23:01.101Z,39.77
2019-01-25T03:25:30.031Z,50.80
2019-01-25T03:27:58.822Z,54.07
2019-01-25T03:30:27.879Z,47.47
2019-01-25T03:32:56.808Z,51.07
2019-01-25T03:35:26.730Z,41.07
2019-01-25T03:37:55.665Z,52.20
2019-01-25T03:40:28.610Z,48.58
2019-01-25T03:42:57.681Z,46.70
2019-01-25T03:45:27.559Z,46.43
2019-01-25T03:47:56.496Z,42.80
2019-01-25T03:50:27.617Z,51.40
2019-01-25T03:52:56.652Z,48.17
2019-01-25T03:55:25.790Z,46.03
2019-01-25T03:57:55.524Z,55.43
2019-01-25T04:00:26.405Z,44.85
2019-01-25T04:02:55.759Z,51.92
2019-01-25T04:05:25.678Z,42.98
2019-01-25T04:07:54.722Z,43.27
2019-01-25T04:10:25.694Z,49.17
2019-01-25T04:12:54.652Z,48.17
2019-01-25T04:15:34.449Z,54.00
2019-01-25T04:18:03.409Z,58.03
2019-01-25T04:20:32.276Z,40.23
2019-01-25T04:23:01.147Z,57.70
2019-01-25T04:25:30.031Z,44.17
2019-01-25T04:27:58.906Z,41.47
2019-01-25T04:30:29.593Z,69.13
2019-01-25T04:32:58.472Z,58.93
2019-01-25T04:35:27.517Z,49.63
2019-01-25T04:37:56.991Z,63.15
2019-01-25T04:40:26.027Z,56.60
2019-01-25T04:42:54.980Z,56.20
2019-01-25T04:45:24.131Z,52.23
2019-01-25T04:47:53.170Z,61.20
2019-01-25T04:50:23.925Z,57.63
2019-01-25T04:52:53.394Z,51.93
2019-01-25T04:55:33.207Z,58.93
2019-01-25T04:58:13.371Z,47.43
2019-01-25T05:00:42.400Z,55.47
2019-01-25T05:03:11.432Z,50.43
2019-01-25T05:05:40.466Z,55.90
2019-01-25T05:08:17.690Z,63.87
2019-01-25T05:10:46.746Z,43.73
2019-01-25T05:13:15.693Z,64.00
2019-01-25T05:15:44.726Z,49.40
2019-01-25T05:18:13.987Z,65.40
2019-01-25T05:20:43.016Z,46.47
2019-01-25T05:23:11.951Z,50.27
2019-01-25T05:25:40.733Z,45.50
2019-01-25T05:28:17.972Z,45.10
2019-01-25T05:31:00.979Z,62.83
2019-01-25T05:33:29.870Z,60.47
2019-01-25T05:35:59.315Z,67.75
2019-01-25T05:38:28.183Z,62.53
2019-01-25T05:40:57.253Z,57.60
2019-01-25T05:43:26.045Z,58.20
2019-01-25T05:45:54.906Z,66.40
2019-01-25T05:48:29.800Z,62.23
2019-01-25T05:51:02.627Z,52.40
2019-01-25T05:53:31.423Z,54.43
2019-01-25T05:56:00.288Z,53.90
2019-01-25T05:58:30.254Z,42.93
2019-01-25T06:00:59.110Z,62.38
2019-01-25T06:03:28.043Z,55.27
2019-01-25T06:06:01.578Z,47.20
2019-01-25T06:08:31.541Z,41.50
2019-01-25T06:11:02.488Z,43.17
2019-01-25T06:13:31.432Z,43.23
2019-01-25T06:16:00.285Z,46.63
2019-01-25T06:18:29.209Z,48.50
2019-01-25T06:20:58.556Z,48.10
2019-01-25T06:23:27.410Z,58.37
2019-01-25T06:25:57.916Z,52.90
2019-01-25T06:28:26.976Z,50.03
2019-01-25T06:30:56.009Z,49.30
2019-01-25T06:33:24.957Z,57.60
2019-01-25T06:35:53.786Z,44.83
2019-01-25T06:38:22.716Z,68.70
2019-01-25T06:40:51.592Z,49.47
2019-01-25T06:43:20.546Z,47.50
2019-01-25T06:45:49.967Z,49.07
2019-01-25T06:48:19.069Z,53.33
2019-01-25T06:50:47.858Z,47.13
2019-01-25T06:53:16.722Z,61.77
2019-01-25T06:55:45.592Z,56.90
2019-01-25T06:58:33.372Z,57.33
2019-01-25T07:01:14.443Z,44.30
2019-01-25T07:03:43.228Z,54.57
2019-01-25T07:06:12.110Z,60.93
2019-01-25T07:08:40.989Z,56.53
2019-01-25T07:11:09.893Z,56.47
2019-01-25T07:13:38.684Z,53.43
2019-01-25T07:16:07.496Z,54.97
2019-01-25T07:18:36.532Z,49.23
2019-01-25T07:21:05.488Z,55.90
2019-01-25T07:23:34.294Z,42.17
2019-01-25T07:26:04.294Z,56.70
2019-01-25T07:28:34.110Z,65.00
2019-01-25T07:31:03.475Z,56.23
2019-01-25T07:33:32.439Z,58.43
2019-01-25T07:36:01.414Z,59.30
2019-01-25T07:38:30.248Z,54.90
2019-01-25T07:40:59.121Z,43.63
2019-01-25T07:43:27.971Z,51.63
2019-01-25T07:45:56.881Z,53.73
2019-01-25T07:48:25.933Z,58.17
2019-01-25T07:50:54.764Z,33.57
2019-01-25T07:53:23.594Z,55.20
2019-01-25T07:55:52.367Z,54.77
2019-01-25T07:58:21.214Z,51.50
2019-01-25T08:00:50.027Z,53.40
2019-01-25T08:03:18.814Z,45.03
2019-01-25T08:05:47.705Z,42.67
2019-01-25T08:08:16.547Z,57.50
2019-01-25T08:10:45.356Z,48.30
2019-01-25T08:13:14.154Z,49.67
2019-01-25T08:15:43.059Z,53.63
2019-01-25T08:18:11.945Z,53.33
2019-01-25T08:20:40.821Z,38.63
2019-01-25T08:23:09.817Z,53.70
2019-01-25T08:25:38.607Z,59.85
2019-01-25T08:28:07.556Z,39.27
2019-01-25T08:30:37.080Z,49.60
2019-01-25T08:33:06.191Z,37.00
2019-01-25T08:35:35.260Z,32.63
2019-01-25T08:38:06.378Z,43.23
2019-01-25T08:40:34.804Z,41.57
2019-01-25T08:43:03.595Z,43.27
2019-01-25T08:45:32.445Z,40.67
2019-01-25T08:48:01.281Z,39.63
2019-01-25T08:50:30.310Z,40.67
2019-01-25T08:52:59.262Z,47.33
2019-01-25T08:55:28.194Z,41.70
2019-01-25T08:57:57.225Z,47.88
2019-01-25T09:00:26.326Z,32.70
2019-01-25T09:02:55.642Z,46.70
2019-01-25T09:05:25.084Z,36.13
2019-01-25T09:07:54.030Z,38.67
2019-01-25T09:10:23.013Z,40.73
2019-01-25T09:12:51.876Z,43.30
2019-01-25T09:15:23.453Z,46.60
2019-01-25T09:17:52.399Z,43.17
2019-01-25T09:20:21.621Z,45.90
2019-01-25T09:22:50.919Z,39.67
2019-01-25T09:25:19.834Z,52.03
2019-01-25T09:27:48.883Z,42.03
2019-01-25T09:30:19.935Z,34.87
2019-01-25T09:32:48.878Z,39.40
2019-01-25T09:35:18.465Z,41.05
2019-01-25T09:37:47.553Z,42.40
2019-01-25T09:40:19.096Z,42.00
2019-01-25T09:42:47.895Z,43.20
2019-01-25T09:45:16.830Z,43.93
2019-01-25T09:47:45.706Z,26.20
2019-01-25T09:50:16.479Z,40.13
2019-01-25T09:52:45.426Z,42.00
2019-01-25T09:55:16.636Z,25.43
2019-01-25T09:57:45.495Z,33.27
2019-01-25T10:00:27.487Z,44.60
2019-01-25T10:02:56.363Z,46.50
2019-01-25T10:05:25.235Z,51.17
2019-01-25T10:07:54.339Z,40.80
2019-01-25T10:10:23.251Z,43.47
2019-01-25T10:12:52.054Z,43.60
2019-01-25T10:15:24.039Z,47.63
2019-01-25T10:17:53.024Z,47.93
2019-01-25T10:20:22.050Z,42.78
2019-01-25T10:22:50.925Z,41.55
2019-01-25T10:25:19.871Z,32.97
2019-01-25T10:27:48.824Z,55.37
2019-01-25T10:30:20.304Z,40.87
2019-01-25T10:32:49.175Z,36.88
2019-01-25T10:35:18.553Z,34.47
2019-01-25T10:37:47.594Z,49.10
2019-01-25T10:40:17.691Z,39.50
2019-01-25T10:42:53.062Z,44.13
2019-01-25T10:45:42.710Z,47.47
2019-01-25T10:48:11.577Z,44.50
2019-01-25T10:50:40.482Z,39.23
2019-01-25T10:53:09.850Z,43.60
2019-01-25T10:55:39.197Z,29.65
2019-01-25T10:58:08.775Z,38.50
2019-01-25T11:00:37.713Z,49.83
2019-01-25T11:03:06.854Z,35.80
2019-01-25T11:05:35.789Z,27.27
2019-01-25T11:08:04.690Z,32.93
2019-01-25T11:10:33.476Z,32.27
2019-01-25T11:13:02.393Z,41.23
2019-01-25T11:15:31.322Z,41.60
2019-01-25T11:18:00.314Z,49.95
2019-01-25T11:20:29.245Z,41.75
2019-01-25T11:22:58.040Z,43.27
2019-01-25T11:25:32.652Z,36.17
2019-01-25T11:28:01.514Z,35.33
2019-01-25T11:30:30.401Z,36.37
2019-01-25T11:32:59.340Z,37.07
2019-01-25T11:35:28.318Z,27.73
2019-01-25T11:37:57.096Z,34.23
2019-01-25T11:40:28.524Z,47.60
2019-01-25T11:42:57.313Z,45.97
2019-01-25T11:45:26.181Z,27.03
2019-01-25T11:47:55.119Z,32.43
2019-01-25T11:50:23.909Z,48.07
2019-01-25T11:52:52.842Z,30.87
2019-01-25T11:55:21.713Z,35.80
2019-01-25T11:57:50.649Z,29.63
2019-01-25T12:00:22.167Z,29.73
2019-01-25T12:02:51.133Z,29.37
2019-01-25T12:05:21.451Z,32.27
2019-01-25T12:07:50.377Z,31.63
2019-01-25T12:10:21.607Z,26.67
2019-01-25T12:12:50.398Z,29.10
2019-01-25T12:15:19.268Z,33.83
2019-01-25T12:17:48.083Z,32.30
2019-01-25T12:20:20.085Z,25.48
2019-01-25T12:22:49.032Z,24.40
2019-01-25T12:25:17.981Z,28.83
2019-01-25T12:27:47.286Z,29.63
2019-01-25T12:30:22.258Z,26.17
2019-01-25T12:32:51.046Z,25.97
2019-01-25T12:35:19.914Z,22.40
2019-01-25T12:37:48.700Z,30.37
2019-01-25T12:40:17.835Z,29.75
2019-01-25T12:42:46.698Z,31.70
2019-01-25T12:45:18.350Z,23.77
2019-01-25T12:47:48.051Z,22.10
2019-01-25T12:50:20.061Z,29.23
2019-01-25T12:52:48.853Z,28.90
2019-01-25T12:55:18.564Z,36.03
2019-01-25T12:57:48.285Z,30.68
2019-01-25T13:00:19.498Z,28.27
2019-01-25T13:02:48.547Z,27.42
2019-01-25T13:05:17.616Z,23.77
2019-01-25T13:07:46.465Z,26.50
2019-01-25T13:10:16.152Z,28.10
2019-01-25T13:12:45.179Z,23.63
2019-01-25T13:15:14.465Z,24.50
2019-01-25T13:17:43.320Z,29.23
2019-01-25T13:20:17.522Z,23.63
2019-01-25T13:22:46.466Z,27.60
2019-01-25T13:25:15.468Z,24.90
2019-01-25T13:27:44.249Z,24.40
2019-01-25T13:30:15.891Z,27.32
2019-01-25T13:32:44.759Z,24.87
2019-01-25T13:35:13.711Z,25.37
2019-01-25T13:37:42.746Z,22.00
2019-01-25T13:40:14.168Z,24.77
2019-01-25T13:42:43.194Z,24.33
2019-01-25T13:45:13.849Z,24.83
2019-01-25T13:47:42.782Z,29.07
2019-01-25T13:50:13.884Z,26.40
2019-01-25T13:52:42.748Z,24.00
2019-01-25T13:55:12.963Z,24.77
2019-01-25T13:57:42.301Z,36.93
2019-01-25T14:00:26.178Z,23.83
2019-01-25T14:02:55.040Z,33.00
2019-01-25T14:05:24.216Z,30.33
2019-01-25T14:07:53.095Z,20.43
2019-01-25T14:10:24.455Z,21.53
2019-01-25T14:12:53.397Z,18.37
2019-01-25T14:15:22.342Z,23.17
2019-01-25T14:17:51.130Z,29.73
2019-01-25T14:20:23.690Z,15.63
2019-01-25T14:22:52.845Z,23.27
2019-01-25T14:25:22.037Z,19.33
2019-01-25T14:27:51.402Z,25.10
2019-01-25T14:30:27.261Z,26.85
2019-01-25T14:32:56.181Z,23.22
2019-01-25T14:35:25.123Z,29.07
2019-01-25T14:37:54.142Z,26.40
2019-01-25T14:40:23.184Z,23.00
2019-01-25T14:42:51.972Z,37.13
2019-01-25T14:45:21.828Z,17.75
2019-01-25T14:47:50.759Z,20.48
2019-01-25T14:50:20.917Z,18.85
2019-01-25T14:52:49.856Z,21.93
2019-01-25T14:55:18.744Z,27.73
2019-01-25T14:57:47.667Z,20.27
2019-01-25T15:00:16.624Z,15.83
2019-01-25T15:02:45.464Z,24.10
2019-01-25T15:05:16.594Z,23.00
2019-01-25T15:07:45.535Z,22.33
2019-01-25T15:10:16.844Z,14.58
2019-01-25T15:12:46.102Z,12.67
2019-01-25T15:15:15.852Z,18.43
2019-01-25T15:17:44.791Z,19.07
2019-01-25T15:20:25.998Z,25.13
2019-01-25T15:22:54.867Z,24.70
2019-01-25T15:25:23.830Z,15.93
2019-01-25T15:27:53.318Z,18.25
2019-01-25T15:30:25.159Z,23.10
2019-01-25T15:32:54.017Z,14.60
2019-01-25T15:35:24.118Z,21.20
2019-01-25T15:37:53.639Z,23.02
2019-01-25T15:40:22.806Z,26.55
2019-01-25T15:42:51.736Z,23.37
2019-01-25T15:45:21.289Z,15.55
2019-01-25T15:47:50.233Z,17.17
2019-01-25T15:50:21.409Z,20.27
2019-01-25T15:52:50.338Z,15.40
2019-01-25T15:55:19.824Z,26.13
2019-01-25T15:57:48.706Z,21.40
2019-01-25T16:00:19.596Z,16.70
2019-01-25T16:02:48.742Z,25.13
2019-01-25T16:05:19.225Z,26.80
2019-01-25T16:07:49.818Z,22.60
2019-01-25T16:10:19.698Z,26.33
2019-01-25T16:12:48.738Z,17.50
2019-01-25T16:15:19.766Z,16.33
2019-01-25T16:17:48.823Z,19.73
2019-01-25T16:20:17.942Z,24.00
2019-01-25T16:22:47.199Z,27.17
2019-01-25T16:25:18.338Z,17.48
2019-01-25T16:27:47.241Z,13.32
2019-01-25T16:30:18.921Z,18.80
2019-01-25T16:32:47.789Z,18.40
2019-01-25T16:35:16.903Z,21.20
2019-01-25T16:37:45.932Z,22.90
2019-01-25T16:40:16.671Z,16.60
2019-01-25T16:42:45.536Z,22.70
2019-01-25T16:45:20.089Z,16.97
2019-01-25T16:47:49.004Z,20.70
2019-01-25T16:50:23.615Z,19.83
2019-01-25T16:52:48.752Z,21.27
2019-01-25T16:55:17.696Z,22.93
2019-01-25T16:57:46.566Z,19.60
2019-01-25T17:00:22.226Z,14.50
2019-01-25T17:02:51.261Z,13.20
2019-01-25T17:05:20.207Z,15.98
2019-01-25T17:07:49.071Z,11.83
2019-01-25T17:10:18.213Z,14.47
2019-01-25T17:12:47.095Z,11.87
2019-01-25T17:15:16.331Z,14.43
2019-01-25T17:17:45.203Z,10.43
2019-01-25T17:20:20.057Z,11.60
2019-01-25T17:22:45.708Z,13.18
2019-01-25T17:25:14.986Z,11.90
2019-01-25T17:27:43.926Z,11.27
2019-01-25T17:30:19.503Z,13.57
2019-01-25T17:32:48.542Z,9.40
2019-01-25T17:35:17.386Z,6.20
2019-01-25T17:37:46.244Z,11.70
2019-01-25T17:40:16.463Z,11.07
2019-01-25T17:42:45.386Z,11.17
2019-01-25T17:45:14.983Z,23.70
2019-01-25T17:47:43.830Z,21.07
2019-01-25T17:50:13.400Z,66.70
2019-01-25T17:52:42.319Z,40.57
2019-01-25T17:55:11.827Z,23.77
2019-01-25T17:57:40.674Z,26.20
2019-01-25T18:00:16.362Z,23.63
2019-01-25T18:02:45.220Z,15.30
2019-01-25T18:05:14.263Z,21.67
2019-01-25T18:07:44.261Z,16.17
2019-01-25T18:10:15.492Z,13.10
2019-01-25T18:12:44.350Z,13.40
2019-01-25T18:15:13.747Z,14.77
2019-01-25T18:17:42.702Z,15.10
2019-01-25T18:20:14.263Z,10.43
2019-01-25T18:22:43.180Z,11.30
2019-01-25T18:25:14.233Z,11.63
2019-01-25T18:27:46.399Z,13.77
2019-01-25T18:30:20.511Z,10.20
2019-01-25T18:32:49.287Z,11.87
2019-01-25T18:35:18.155Z,17.23
2019-01-25T18:37:47.006Z,19.13
2019-01-25T18:40:15.890Z,14.90
2019-01-25T18:42:44.717Z,13.85
2019-01-25T18:45:13.655Z,17.13
2019-01-25T18:47:42.555Z,17.67
2019-01-25T18:50:12.975Z,15.58
2019-01-25T18:52:41.827Z,16.50
2019-01-25T18:55:13.687Z,17.50
2019-01-25T18:57:42.479Z,11.93
2019-01-25T19:00:14.829Z,19.60
2019-01-25T19:02:43.682Z,14.10
2019-01-25T19:05:12.628Z,12.70
2019-01-25T19:07:41.561Z,14.63
2019-01-25T19:10:13.525Z,10.65
2019-01-25T19:12:42.384Z,15.10
2019-01-25T19:15:13.672Z,16.90
2019-01-25T19:17:42.640Z,14.47
2019-01-25T19:20:12.715Z,16.90
2019-01-25T19:22:41.762Z,13.30
2019-01-25T19:25:10.704Z,16.55
2019-01-25T19:27:39.554Z,14.27
2019-01-25T19:30:16.832Z,13.50
2019-01-25T19:32:45.763Z,14.50
2019-01-25T19:35:14.732Z,10.95
2019-01-25T19:37:43.660Z,15.43
2019-01-25T19:40:14.599Z,10.77
2019-01-25T19:42:43.557Z,12.73
2019-01-25T19:45:12.926Z,7.80
2019-01-25T19:47:41.844Z,9.30
2019-01-25T19:50:12.974Z,18.80
2019-01-25T19:52:41.934Z,11.57
2019-01-25T19:55:13.840Z,12.57
2019-01-25T19:57:42.867Z,12.45
2019-01-25T20:00:24.332Z,9.78
2019-01-25T20:02:53.256Z,9.67
2019-01-25T20:05:22.458Z,9.90
2019-01-25T20:07:51.493Z,12.83
2019-01-25T20:10:20.810Z,10.30
2019-01-25T20:12:50.098Z,17.93
2019-01-25T20:15:19.747Z,9.70
2019-01-25T20:17:48.619Z,8.05
2019-01-25T20:20:20.379Z,9.13
2019-01-25T20:22:49.308Z,14.10
2019-01-25T20:25:18.244Z,11.83
2019-01-25T20:27:47.039Z,11.85
2019-01-25T20:30:21.815Z,9.80
2019-01-25T20:32:50.682Z,15.00
2019-01-25T20:35:21.385Z,14.20
2019-01-25T20:37:50.187Z,11.80
2019-01-25T20:40:19.102Z,9.57
2019-01-25T20:42:47.982Z,12.83
2019-01-25T20:45:27.054Z,15.03
2019-01-25T20:47:52.782Z,10.83
2019-01-25T20:50:24.560Z,10.63
2019-01-25T20:52:53.652Z,15.70
2019-01-25T20:55:22.694Z,16.00
2019-01-25T20:57:51.572Z,9.48
2019-01-25T21:00:22.890Z,18.27
2019-01-25T21:02:52.186Z,11.90
2019-01-25T21:05:21.550Z,20.12
2019-01-25T21:07:50.451Z,19.27
2019-01-25T21:10:20.743Z,11.37
2019-01-25T21:12:49.880Z,8.20
2019-01-25T21:15:20.285Z,11.07
2019-01-25T21:17:49.430Z,22.70
2019-01-25T21:20:20.764Z,9.80
2019-01-25T21:22:49.724Z,11.00
2019-01-25T21:27:50.213Z,11.45
2019-01-25T21:30:22.004Z,10.05
2019-01-25T21:32:50.960Z,11.23
2019-01-25T21:35:19.990Z,15.70
2019-01-25T21:37:48.869Z,12.33
2019-01-25T21:40:19.880Z,11.77
2019-01-25T21:42:48.910Z,11.13
2019-01-25T21:45:20.041Z,10.23
2019-01-25T21:47:49.155Z,11.63
2019-01-25T21:50:20.140Z,14.43
2019-01-25T21:52:49.271Z,12.33
2019-01-25T21:55:18.194Z,9.03
2019-01-25T21:57:47.059Z,9.60
2019-01-25T22:02:45.651Z,10.03
2019-01-25T22:05:14.835Z,9.30
2019-01-25T22:07:43.775Z,14.93
2019-01-25T22:10:15.511Z,6.70
2019-01-25T22:12:44.374Z,18.37
2019-01-25T22:15:15.364Z,9.63
2019-01-25T22:17:44.621Z,11.10
2019-01-25T22:20:16.767Z,12.85
2019-01-25T22:22:45.618Z,8.20
2019-01-25T22:25:14.677Z,11.17
2019-01-25T22:27:44.186Z,11.20
2019-01-25T22:30:15.648Z,8.97
2019-01-25T22:32:44.578Z,9.70
2019-01-25T22:35:13.608Z,14.50
2019-01-25T22:37:42.481Z,9.30
2019-01-25T22:40:14.905Z,16.65
2019-01-25T22:42:44.084Z,10.67
2019-01-25T22:45:15.048Z,8.10
2019-01-25T22:47:43.984Z,10.13
2019-01-25T22:50:16.774Z,8.83
2019-01-25T22:52:45.698Z,10.30
2019-01-25T22:55:15.262Z,7.13
2019-01-25T22:57:44.190Z,11.03
2019-01-25T23:00:52.028Z,10.20
2019-01-25T23:04:00.824Z,10.90
2019-01-25T23:06:39.924Z,7.90
2019-01-25T23:09:32.095Z,8.20
2019-01-25T23:12:01.038Z,11.47
2019-01-25T23:14:29.837Z,10.23
2019-01-25T23:16:58.829Z,12.10
2019-01-25T23:19:27.772Z,12.27
2019-01-25T23:21:56.625Z,10.67
2019-01-25T23:24:25.580Z,10.97
2019-01-25T23:26:54.427Z,11.13
2019-01-25T23:29:23.366Z,13.48
2019-01-25T23:31:52.218Z,16.40
2019-01-25T23:34:21.005Z,14.10
2019-01-25T23:36:49.784Z,10.73
2019-01-25T23:39:18.628Z,12.10
2019-01-25T23:41:47.476Z,13.50
2019-01-25T23:44:16.421Z,9.80
2019-01-25T23:46:45.213Z,10.47
2019-01-25T23:49:13.995Z,9.57
2019-01-25T23:51:42.867Z,10.03
2019-01-25T23:54:11.649Z,14.30
2019-01-25T23:56:40.444Z,13.60
2019-01-25T23:59:09.223Z,10.43
